Jork Reliance — V2CL2 — position and weather

sailwx.info

Track history (hours):
 
Tides and Currents Weather Stations Pressure Air Temp Water Temp Dewpoint Dewpoint Depression Visibility Wind Speed Wind Dir Waves Ship Positions

Jork Reliance

Last reported at 2015-Apr-27 00:33 UTC. Time now 2015-Apr-28 18:12 UTC.
Position N 50°04' W 003°42'.

Length 141 m; draft 7.3 m.

Type: Ship (hazmat cat A). MMSI: 305033000.

Date/timePositionNaut miles runAvg speedWind from/ knotsBaromVisibWave heightAir tempDewpointWater temp
2015-Apr-27 00:33N 50°04' W 003°42'1212.2
2015-Apr-26 23:33N 50°07' W 003°23'1212.4
2015-Apr-26 22:33N 50°09' W 003°04'1312.9
2015-Apr-26 21:33N 50°12' W 002°45'1513.6
2015-Apr-26 20:26N 50°15' W 002°21'1314.3
2015-Apr-26 19:33N 50°17' W 002°02'3114.2
2015-Apr-26 17:22N 50°23' W 001°14'1112.9
2015-Apr-26 16:32N 50°26' W 000°57'1412.0
2015-Apr-26 15:20N 50°29' W 000°36'1111.6
2015-Apr-26 14:23N 50°31' W 000°19'1111.8
2015-Apr-26 13:27N 50°33' W 000°01'1112.2
2015-Apr-26 12:32N 50°35' E 000°16'1312.8
2015-Apr-26 11:33N 50°38' E 000°35'1413.5
2015-Apr-26 10:33N 50°46' E 000°53'1413.6
2015-Apr-26 09:30N 50°55' E 001°10'1213.2
2015-Apr-26 08:34N 51°03' E 001°25'1211.8
2015-Apr-26 07:33N 51°11' E 001°39'1110.9
2015-Apr-26 06:34N 51°19' E 001°51'1010.0
2015-Apr-26 05:34N 51°24' E 002°05'1111.0
2015-Apr-26 04:33N 51°21' E 002°22'1111.4
2015-Apr-26 03:33N 51°23' E 002°40'1414.4
2015-Apr-26 02:33N 51°24' E 003°03'1615.9
2015-Apr-26 01:33N 51°25' E 003°28'1212.0
2015-Apr-26 00:34N 51°22' E 003°47'1212.0
2015-Apr-25 23:33N 51°22' E 004°06'7 7.0
2015-Apr-25 22:34N 51°20' E 004°17'0 0.0
2015-Apr-25 21:33N 51°20' E 004°17'0 0.0
2015-Apr-25 20:34N 51°20' E 004°17'0 0.0
2015-Apr-25 19:34N 51°20' E 004°17'0 0.0
2015-Apr-25 18:33N 51°20' E 004°17'0 0.0
2015-Apr-25 17:33N 51°20' E 004°17'0 0.0
2015-Apr-25 16:33N 51°20' E 004°17'0 0.0
2015-Apr-25 15:33N 51°20' E 004°17'0 0.0
2015-Apr-25 14:34N 51°20' E 004°17'0 0.0
2015-Apr-25 13:31N 51°20' E 004°17'0 0.0
2015-Apr-25 12:34N 51°20' E 004°17'0 0.0
2015-Apr-25 11:33N 51°20' E 004°17'3 3.0
2015-Apr-25 10:33N 51°22' E 004°13'10 9.6
2015-Apr-25 09:34N 51°26' E 003°59'1010.3
2015-Apr-25 08:34N 51°23' E 003°42'1010.3
2015-Apr-25 07:33N 51°30' E 003°29'1312.9
2015-Apr-25 06:32N 51°41' E 003°18'1110.8
2015-Apr-25 05:33N 51°51' E 003°17'1312.5
2015-Apr-25 04:30N 52°03' E 003°29'1515.7
2015-Apr-25 03:34N 52°03' E 003°53'1413.9
2015-Apr-25 02:33N 51°56' E 004°13'8 8.0
2015-Apr-25 01:34N 51°53' E 004°25'0 0.0
2015-Apr-25 00:33N 51°53' E 004°25'0 0.0
2015-Apr-24 23:33N 51°53' E 004°25'0 0.0
2015-Apr-24 22:33N 51°53' E 004°25'0 0.0
2015-Apr-24 21:33N 51°53' E 004°25'0 0.0
2015-Apr-24 20:33N 51°53' E 004°25'0 0.0
2015-Apr-24 19:33N 51°53' E 004°25'0 0.0
2015-Apr-24 18:33N 51°53' E 004°25'0 0.0
2015-Apr-24 17:33N 51°53' E 004°25'0 0.0
2015-Apr-24 16:33N 51°53' E 004°25'0 0.0
2015-Apr-24 15:33N 51°53' E 004°25'0 0.0
2015-Apr-24 14:30N 51°53' E 004°25'0 0.0
2015-Apr-24 13:33N 51°53' E 004°25'0 0.0
2015-Apr-24 12:33N 51°53' E 004°25'0 0.0
2015-Apr-24 11:33N 51°53' E 004°25'0 0.0
2015-Apr-24 10:33N 51°53' E 004°25'0 0.0
2015-Apr-24 09:33N 51°53' E 004°25'0 0.0
2015-Apr-24 08:30N 51°53' E 004°25'0 0.0
2015-Apr-24 07:33N 51°53' E 004°25'0 0.0
2015-Apr-24 06:30N 51°53' E 004°24'0 0.0
2015-Apr-24 05:33N 51°53' E 004°25'4 3.8
2015-Apr-24 04:33N 51°54' E 004°19'1413.6
2015-Apr-24 03:33N 51°60' E 003°59'1413.9
2015-Apr-24 02:33N 51°58' E 003°37'1716.1
2015-Apr-24 01:30N 51°53' E 003°10'1515.7
2015-Apr-24 00:33N 51°48' E 002°47'1414.5
2015-Apr-23 23:33N 51°39' E 002°29'1514.9
2015-Apr-23 22:33N 51°28' E 002°14'1515.4
2015-Apr-23 21:33N 51°14' E 002°03'1515.2
2015-Apr-23 20:34N 51°05' E 001°44'1515.4
2015-Apr-23 19:33N 50°53' E 001°28'1615.5
2015-Apr-23 18:33N 50°40' E 001°15'1615.8
2015-Apr-23 17:33N 50°30' E 000°56'1615.6
2015-Apr-23 16:33N 50°26' E 000°32'1915.6
2015-Apr-23 15:20N 50°21' E 000°03'1216.0
2015-Apr-23 14:33N 50°20' W 000°17'3517.6
2015-Apr-23 12:33N 50°19' W 001°12'1919.0
2015-Apr-23 11:33N 50°17' W 001°41'1919.4
2015-Apr-23 10:33N 50°13' W 002°11'1818.4
2015-Apr-23 09:33N 50°10' W 002°39'1717.3
2015-Apr-23 08:33N 50°07' W 003°06'1716.8
2015-Apr-23 07:33N 50°04' W 003°32'128 9.8
2015-Apr-22 18:31N 51°32' W 005°58'2317.8
2015-Apr-22 17:12N 51°55' W 005°53'1219.3
2015-Apr-22 16:33N 52°08' W 005°53'1919.4
2015-Apr-22 15:33N 52°27' W 005°53'3918.8
2015-Apr-22 13:29N 53°06' W 005°57'1615.1
2015-Apr-22 12:27N 53°20' W 006°07'1 0.0
2015-Apr-20 22:10N 53°21' W 006°08'4512.4
2015-Apr-20 18:33N 52°37' W 005°51'1615.6
2015-Apr-20 17:34N 52°21' W 005°50'160 9.3
2015-Apr-20 00:21N 50°04' W 003°40'1114.0
2015-Apr-19 23:33N 50°06' W 003°23'1312.8
2015-Apr-19 22:33N 50°09' W 003°03'1111.3
2015-Apr-19 21:33N 50°11' W 002°46'1010.0
2015-Apr-19 20:33N 50°13' W 002°30'19 9.3
2015-Apr-19 18:33N 50°17' W 002°02'2411.9
2015-Apr-19 16:32N 50°22' W 001°25'1414.9
2015-Apr-19 15:33N 50°25' W 001°02'1615.5
2015-Apr-19 14:32N 50°28' W 000°38'2914.0
2015-Apr-19 12:27N 50°34' E 000°07'1112.4
2015-Apr-19 11:33N 50°36' E 000°24'1111.2
2015-Apr-19 10:33N 50°41' E 000°40'1111.2
2015-Apr-19 09:33N 50°48' E 000°54'1312.9
2015-Apr-19 08:34N 50°56' E 001°11'1515.5
2015-Apr-19 07:34N 51°05' E 001°30'1615.8
2015-Apr-19 06:33N 51°16' E 001°48'1413.8
2015-Apr-19 05:33N 51°27' E 002°01'1212.3
2015-Apr-19 04:33N 51°37' E 002°14'3710.7
2015-Apr-19 01:06N 52°02' E 002°59'611.3
2015-Apr-19 00:33N 52°02' E 003°08'1211.9
2015-Apr-18 23:33N 52°03' E 003°28'1312.7
2015-Apr-18 22:33N 52°02' E 003°48'1312.7
2015-Apr-18 21:33N 51°58' E 004°08'1111.3
2015-Apr-18 20:33N 51°53' E 004°24'1 0.5
2015-Apr-18 19:32N 51°53' E 004°25'0 0.0
2015-Apr-18 18:32N 51°53' E 004°25'0 0.0
2015-Apr-18 17:32N 51°53' E 004°25'0 0.0
2015-Apr-18 16:32N 51°53' E 004°25'0 0.0
2015-Apr-18 15:32N 51°53' E 004°25'0 0.0
2015-Apr-18 14:32N 51°53' E 004°25'4 4.0
2015-Apr-18 13:33N 51°54' E 004°18'1212.0
2015-Apr-18 12:34N 51°60' E 004°01'1212.0
2015-Apr-18 11:33N 51°59' E 003°42'1211.7
2015-Apr-18 10:33N 51°55' E 003°24'1110.9
2015-Apr-18 09:31N 51°45' E 003°15'1111.3
2015-Apr-18 08:33N 51°34' E 003°10'1110.6
2015-Apr-18 07:34N 51°25' E 003°04'1716.9
2015-Apr-18 06:33N 51°25' E 003°31'1313.4
2015-Apr-18 05:33N 51°21' E 003°51'1211.6
2015-Apr-18 04:33N 51°23' E 004°09'5 5.2
2015-Apr-18 03:33N 51°20' E 004°17'0 0.0
2015-Apr-18 02:33N 51°20' E 004°17'0 0.0
2015-Apr-18 01:33N 51°20' E 004°17'0 0.0
2015-Apr-18 00:33N 51°20' E 004°17'0 0.0
2015-Apr-17 23:33N 51°20' E 004°17'0 0.0
2015-Apr-17 22:33N 51°20' E 004°17'0 0.0
2015-Apr-17 21:33N 51°20' E 004°17'0 0.0
2015-Apr-17 20:33N 51°20' E 004°17'0 0.0
2015-Apr-17 19:33N 51°20' E 004°17'0 0.0
2015-Apr-17 18:33N 51°20' E 004°17'0 0.0
2015-Apr-17 17:33N 51°20' E 004°17'0 0.0
2015-Apr-17 16:33N 51°20' E 004°17'0 0.0
2015-Apr-17 15:33N 51°20' E 004°17'0 0.0
2015-Apr-17 14:33N 51°20' E 004°17'0 0.0
2015-Apr-17 13:33N 51°20' E 004°17'0 0.0
2015-Apr-17 12:33N 51°20' E 004°17'0 0.0
2015-Apr-17 11:33N 51°20' E 004°17'0 0.0
2015-Apr-17 10:33N 51°20' E 004°17'0 0.1
2015-Apr-17 09:34N 51°20' E 004°17'4 4.1
2015-Apr-17 08:34N 51°17' E 004°20'1 1.4
2015-Apr-17 07:34N 51°15' E 004°21'0 0.2
2015-Apr-17 06:31N 51°15' E 004°21'0 0.0
2015-Apr-17 05:31N 51°15' E 004°21'0 0.0
2015-Apr-17 04:31N 51°15' E 004°21'0 0.0
2015-Apr-17 03:31N 51°15' E 004°21'0 0.0
2015-Apr-17 02:31N 51°15' E 004°21'0 0.0
2015-Apr-17 01:31N 51°15' E 004°21'  
Track history (hours):
 
Tides and Currents Weather Stations Pressure Air Temp Water Temp Dewpoint Dewpoint Depression Visibility Wind Speed Wind Dir Waves Ship Positions

Jork Reliance

Last reported at 2015-Apr-27 00:33 UTC. Time now 2015-Apr-28 18:12 UTC.
Position N 50°04' W 003°42'.

Length 141 m; draft 7.3 m.

Type: Ship (hazmat cat A). MMSI: 305033000.

Date/timePositionNaut miles runAvg speedWind from/ knotsBaromVisibWave heightAir tempDewpointWater temp
2015-Apr-27 00:33N 50°04' W 003°42'1212.2
2015-Apr-26 23:33N 50°07' W 003°23'1212.4
2015-Apr-26 22:33N 50°09' W 003°04'1312.9
2015-Apr-26 21:33N 50°12' W 002°45'1513.6
2015-Apr-26 20:26N 50°15' W 002°21'1314.3
2015-Apr-26 19:33N 50°17' W 002°02'3114.2
2015-Apr-26 17:22N 50°23' W 001°14'1112.9
2015-Apr-26 16:32N 50°26' W 000°57'1412.0
2015-Apr-26 15:20N 50°29' W 000°36'1111.6
2015-Apr-26 14:23N 50°31' W 000°19'1111.8
2015-Apr-26 13:27N 50°33' W 000°01'1112.2
2015-Apr-26 12:32N 50°35' E 000°16'1312.8
2015-Apr-26 11:33N 50°38' E 000°35'1413.5
2015-Apr-26 10:33N 50°46' E 000°53'1413.6
2015-Apr-26 09:30N 50°55' E 001°10'1213.2
2015-Apr-26 08:34N 51°03' E 001°25'1211.8
2015-Apr-26 07:33N 51°11' E 001°39'1110.9
2015-Apr-26 06:34N 51°19' E 001°51'1010.0
2015-Apr-26 05:34N 51°24' E 002°05'1111.0
2015-Apr-26 04:33N 51°21' E 002°22'1111.4
2015-Apr-26 03:33N 51°23' E 002°40'1414.4
2015-Apr-26 02:33N 51°24' E 003°03'1615.9
2015-Apr-26 01:33N 51°25' E 003°28'1212.0
2015-Apr-26 00:34N 51°22' E 003°47'1212.0
2015-Apr-25 23:33N 51°22' E 004°06'7 7.0
2015-Apr-25 22:34N 51°20' E 004°17'0 0.0
2015-Apr-25 21:33N 51°20' E 004°17'0 0.0
2015-Apr-25 20:34N 51°20' E 004°17'0 0.0
2015-Apr-25 19:34N 51°20' E 004°17'0 0.0
2015-Apr-25 18:33N 51°20' E 004°17'0 0.0
2015-Apr-25 17:33N 51°20' E 004°17'0 0.0
2015-Apr-25 16:33N 51°20' E 004°17'0 0.0
2015-Apr-25 15:33N 51°20' E 004°17'0 0.0
2015-Apr-25 14:34N 51°20' E 004°17'0 0.0
2015-Apr-25 13:31N 51°20' E 004°17'0 0.0
2015-Apr-25 12:34N 51°20' E 004°17'0 0.0
2015-Apr-25 11:33N 51°20' E 004°17'3 3.0
2015-Apr-25 10:33N 51°22' E 004°13'10 9.6
2015-Apr-25 09:34N 51°26' E 003°59'1010.3
2015-Apr-25 08:34N 51°23' E 003°42'1010.3
2015-Apr-25 07:33N 51°30' E 003°29'1312.9
2015-Apr-25 06:32N 51°41' E 003°18'1110.8
2015-Apr-25 05:33N 51°51' E 003°17'1312.5
2015-Apr-25 04:30N 52°03' E 003°29'1515.7
2015-Apr-25 03:34N 52°03' E 003°53'1413.9
2015-Apr-25 02:33N 51°56' E 004°13'8 8.0
2015-Apr-25 01:34N 51°53' E 004°25'0 0.0
2015-Apr-25 00:33N 51°53' E 004°25'0 0.0
2015-Apr-24 23:33N 51°53' E 004°25'0 0.0
2015-Apr-24 22:33N 51°53' E 004°25'0 0.0
2015-Apr-24 21:33N 51°53' E 004°25'0 0.0
2015-Apr-24 20:33N 51°53' E 004°25'0 0.0
2015-Apr-24 19:33N 51°53' E 004°25'0 0.0
2015-Apr-24 18:33N 51°53' E 004°25'0 0.0
2015-Apr-24 17:33N 51°53' E 004°25'0 0.0
2015-Apr-24 16:33N 51°53' E 004°25'0 0.0
2015-Apr-24 15:33N 51°53' E 004°25'0 0.0
2015-Apr-24 14:30N 51°53' E 004°25'0 0.0
2015-Apr-24 13:33N 51°53' E 004°25'0 0.0
2015-Apr-24 12:33N 51°53' E 004°25'0 0.0
2015-Apr-24 11:33N 51°53' E 004°25'0 0.0
2015-Apr-24 10:33N 51°53' E 004°25'0 0.0
2015-Apr-24 09:33N 51°53' E 004°25'0 0.0
2015-Apr-24 08:30N 51°53' E 004°25'0 0.0
2015-Apr-24 07:33N 51°53' E 004°25'0 0.0
2015-Apr-24 06:30N 51°53' E 004°24'0 0.0
2015-Apr-24 05:33N 51°53' E 004°25'4 3.8
2015-Apr-24 04:33N 51°54' E 004°19'1413.6
2015-Apr-24 03:33N 51°60' E 003°59'1413.9
2015-Apr-24 02:33N 51°58' E 003°37'1716.1
2015-Apr-24 01:30N 51°53' E 003°10'1515.7
2015-Apr-24 00:33N 51°48' E 002°47'1414.5
2015-Apr-23 23:33N 51°39' E 002°29'1514.9
2015-Apr-23 22:33N 51°28' E 002°14'1515.4
2015-Apr-23 21:33N 51°14' E 002°03'1515.2
2015-Apr-23 20:34N 51°05' E 001°44'1515.4
2015-Apr-23 19:33N 50°53' E 001°28'1615.5
2015-Apr-23 18:33N 50°40' E 001°15'1615.8
2015-Apr-23 17:33N 50°30' E 000°56'1615.6
2015-Apr-23 16:33N 50°26' E 000°32'1915.6
2015-Apr-23 15:20N 50°21' E 000°03'1216.0
2015-Apr-23 14:33N 50°20' W 000°17'3517.6
2015-Apr-23 12:33N 50°19' W 001°12'1919.0
2015-Apr-23 11:33N 50°17' W 001°41'1919.4
2015-Apr-23 10:33N 50°13' W 002°11'1818.4
2015-Apr-23 09:33N 50°10' W 002°39'1717.3
2015-Apr-23 08:33N 50°07' W 003°06'1716.8
2015-Apr-23 07:33N 50°04' W 003°32'128 9.8
2015-Apr-22 18:31N 51°32' W 005°58'2317.8
2015-Apr-22 17:12N 51°55' W 005°53'1219.3
2015-Apr-22 16:33N 52°08' W 005°53'1919.4
2015-Apr-22 15:33N 52°27' W 005°53'3918.8
2015-Apr-22 13:29N 53°06' W 005°57'1615.1
2015-Apr-22 12:27N 53°20' W 006°07'1 0.0
2015-Apr-20 22:10N 53°21' W 006°08'4512.4
2015-Apr-20 18:33N 52°37' W 005°51'1615.6
2015-Apr-20 17:34N 52°21' W 005°50'160 9.3
2015-Apr-20 00:21N 50°04' W 003°40'1114.0
2015-Apr-19 23:33N 50°06' W 003°23'1312.8
2015-Apr-19 22:33N 50°09' W 003°03'1111.3
2015-Apr-19 21:33N 50°11' W 002°46'1010.0
2015-Apr-19 20:33N 50°13' W 002°30'19 9.3
2015-Apr-19 18:33N 50°17' W 002°02'2411.9
2015-Apr-19 16:32N 50°22' W 001°25'1414.9
2015-Apr-19 15:33N 50°25' W 001°02'1615.5
2015-Apr-19 14:32N 50°28' W 000°38'2914.0
2015-Apr-19 12:27N 50°34' E 000°07'1112.4
2015-Apr-19 11:33N 50°36' E 000°24'1111.2
2015-Apr-19 10:33N 50°41' E 000°40'1111.2
2015-Apr-19 09:33N 50°48' E 000°54'1312.9
2015-Apr-19 08:34N 50°56' E 001°11'1515.5
2015-Apr-19 07:34N 51°05' E 001°30'1615.8
2015-Apr-19 06:33N 51°16' E 001°48'1413.8
2015-Apr-19 05:33N 51°27' E 002°01'1212.3
2015-Apr-19 04:33N 51°37' E 002°14'3710.7
2015-Apr-19 01:06N 52°02' E 002°59'611.3
2015-Apr-19 00:33N 52°02' E 003°08'1211.9
2015-Apr-18 23:33N 52°03' E 003°28'1312.7
2015-Apr-18 22:33N 52°02' E 003°48'1312.7
2015-Apr-18 21:33N 51°58' E 004°08'1111.3
2015-Apr-18 20:33N 51°53' E 004°24'1 0.5
2015-Apr-18 19:32N 51°53' E 004°25'0 0.0
2015-Apr-18 18:32N 51°53' E 004°25'0 0.0
2015-Apr-18 17:32N 51°53' E 004°25'0 0.0
2015-Apr-18 16:32N 51°53' E 004°25'0 0.0
2015-Apr-18 15:32N 51°53' E 004°25'0 0.0
2015-Apr-18 14:32N 51°53' E 004°25'4 4.0
2015-Apr-18 13:33N 51°54' E 004°18'1212.0
2015-Apr-18 12:34N 51°60' E 004°01'1212.0
2015-Apr-18 11:33N 51°59' E 003°42'1211.7
2015-Apr-18 10:33N 51°55' E 003°24'1110.9
2015-Apr-18 09:31N 51°45' E 003°15'1111.3
2015-Apr-18 08:33N 51°34' E 003°10'1110.6
2015-Apr-18 07:34N 51°25' E 003°04'1716.9
2015-Apr-18 06:33N 51°25' E 003°31'1313.4
2015-Apr-18 05:33N 51°21' E 003°51'1211.6
2015-Apr-18 04:33N 51°23' E 004°09'5 5.2
2015-Apr-18 03:33N 51°20' E 004°17'0 0.0
2015-Apr-18 02:33N 51°20' E 004°17'0 0.0
2015-Apr-18 01:33N 51°20' E 004°17'0 0.0
2015-Apr-18 00:33N 51°20' E 004°17'0 0.0
2015-Apr-17 23:33N 51°20' E 004°17'0 0.0
2015-Apr-17 22:33N 51°20' E 004°17'0 0.0
2015-Apr-17 21:33N 51°20' E 004°17'0 0.0
2015-Apr-17 20:33N 51°20' E 004°17'0 0.0
2015-Apr-17 19:33N 51°20' E 004°17'0 0.0
2015-Apr-17 18:33N 51°20' E 004°17'0 0.0
2015-Apr-17 17:33N 51°20' E 004°17'0 0.0
2015-Apr-17 16:33N 51°20' E 004°17'0 0.0
2015-Apr-17 15:33N 51°20' E 004°17'0 0.0
2015-Apr-17 14:33N 51°20' E 004°17'0 0.0
2015-Apr-17 13:33N 51°20' E 004°17'0 0.0
2015-Apr-17 12:33N 51°20' E 004°17'0 0.0
2015-Apr-17 11:33N 51°20' E 004°17'0 0.0
2015-Apr-17 10:33N 51°20' E 004°17'0 0.1
2015-Apr-17 09:34N 51°20' E 004°17'4 4.1
2015-Apr-17 08:34N 51°17' E 004°20'1 1.4
2015-Apr-17 07:34N 51°15' E 004°21'0 0.2
2015-Apr-17 06:31N 51°15' E 004°21'0 0.0
2015-Apr-17 05:31N 51°15' E 004°21'0 0.0
2015-Apr-17 04:31N 51°15' E 004°21'0 0.0
2015-Apr-17 03:31N 51°15' E 004°21'0 0.0
2015-Apr-17 02:31N 51°15' E 004°21'0 0.0
2015-Apr-17 01:31N 51°15' E 004°21'  

Dump ship's entire track history